createdAt,value
2024-04-21T00:00:28.224Z,65.74
2024-04-21T00:01:29.845Z,63.18
2024-04-21T00:02:31.430Z,60.90
2024-04-21T00:03:32.916Z,58.73
2024-04-21T00:04:34.675Z,55.42
2024-04-21T00:05:36.183Z,54.56
2024-04-21T00:06:37.679Z,54.24
2024-04-21T00:07:39.038Z,55.04
2024-04-21T00:08:40.489Z,56.02
2024-04-21T00:09:41.940Z,56.84
2024-04-21T00:10:43.651Z,57.76
2024-04-21T00:11:45.195Z,58.68
2024-04-21T00:12:46.640Z,59.70
2024-04-21T00:13:48.083Z,60.67
2024-04-21T00:14:49.869Z,61.38
2024-04-21T00:15:51.313Z,62.52
2024-04-21T00:16:52.853Z,66.63
2024-04-21T00:17:54.480Z,67.58
2024-04-21T00:18:55.965Z,65.51
2024-04-21T00:19:57.458Z,62.86
2024-04-21T00:20:58.903Z,60.72
2024-04-21T00:22:00.409Z,57.76
2024-04-21T00:23:01.899Z,54.56
2024-04-21T00:24:03.369Z,53.68
2024-04-21T00:25:05.475Z,53.78
2024-04-21T00:26:07.137Z,54.46
2024-04-21T00:27:08.647Z,55.65
2024-04-21T00:28:10.094Z,56.21
2024-04-21T00:29:11.496Z,57.18
2024-04-21T00:30:13.069Z,58.17
2024-04-21T00:31:15.831Z,59.03
2024-04-21T00:32:17.487Z,59.90
2024-04-21T00:33:19.246Z,60.97
2024-04-21T00:34:20.734Z,61.65
2024-04-21T00:35:22.223Z,63.42
2024-04-21T00:36:23.971Z,66.65
2024-04-21T00:37:25.409Z,67.84
2024-04-21T00:38:26.753Z,65.84
2024-04-21T00:39:28.087Z,63.98
2024-04-21T00:40:29.652Z,60.18
2024-04-21T00:41:31.223Z,56.45
2024-04-21T00:42:32.555Z,54.24
2024-04-21T00:43:34.053Z,53.54
2024-04-21T00:44:35.732Z,53.76
2024-04-21T00:45:47.634Z,54.72
2024-04-21T00:46:49.743Z,55.35
2024-04-21T00:47:51.424Z,56.38
2024-04-21T00:48:54.177Z,57.36
2024-04-21T00:49:56.172Z,58.49
2024-04-21T00:50:58.077Z,59.25
2024-04-21T00:52:01.351Z,60.02
2024-04-21T00:53:03.407Z,60.46
2024-04-21T00:54:05.900Z,60.79
2024-04-21T00:55:07.599Z,61.47
2024-04-21T00:56:11.004Z,63.39
2024-04-21T00:57:12.672Z,66.47
2024-04-21T00:58:15.937Z,67.18
2024-04-21T00:59:18.198Z,66.32
2024-04-21T01:00:20.571Z,63.37
2024-04-21T01:01:22.742Z,60.50
2024-04-21T01:02:24.496Z,57.80
2024-04-21T01:03:26.007Z,54.60
2024-04-21T01:04:27.489Z,53.17
2024-04-21T01:05:29.016Z,53.35
2024-04-21T01:06:30.378Z,54.02
2024-04-21T01:07:31.915Z,55.15
2024-04-21T01:08:33.420Z,56.09
2024-04-21T01:09:34.854Z,57.11
2024-04-21T01:10:36.290Z,58.10
2024-04-21T01:11:47.775Z,58.80
2024-04-21T01:12:49.140Z,59.37
2024-04-21T01:13:50.651Z,60.29
2024-04-21T01:14:51.995Z,60.83
2024-04-21T01:15:54.943Z,61.46
2024-04-21T01:16:56.510Z,62.93
2024-04-21T01:17:58.286Z,67.11
2024-04-21T01:18:59.933Z,67.73
2024-04-21T01:20:02.575Z,66.06
2024-04-21T01:21:04.709Z,62.83
2024-04-21T01:22:06.509Z,59.65
2024-04-21T01:23:08.027Z,56.05
2024-04-21T01:24:09.402Z,54.00
2024-04-21T01:25:10.890Z,53.96
2024-04-21T01:26:12.310Z,54.52
2024-04-21T01:27:13.660Z,55.16
2024-04-21T01:28:15.130Z,56.03
2024-04-21T01:29:16.609Z,57.01
2024-04-21T01:30:18.327Z,57.97
2024-04-21T01:31:20.039Z,59.05
2024-04-21T01:32:22.462Z,59.58
2024-04-21T01:33:24.326Z,60.28
2024-04-21T01:34:25.876Z,61.17
2024-04-21T01:35:27.283Z,62.35
2024-04-21T01:36:28.659Z,66.28
2024-04-21T01:37:30.155Z,67.20
2024-04-21T01:38:31.803Z,65.14
2024-04-21T01:39:33.256Z,62.67
2024-04-21T01:40:35.090Z,59.69
2024-04-21T01:41:36.512Z,55.57
2024-04-21T01:42:37.879Z,53.72
2024-04-21T01:43:39.322Z,53.39
2024-04-21T01:44:41.367Z,54.04
2024-04-21T01:45:42.729Z,55.02
2024-04-21T01:46:44.137Z,55.62
2024-04-21T01:47:45.642Z,56.18
2024-04-21T01:48:47.196Z,57.50
2024-04-21T01:49:51.513Z,58.91
2024-04-21T01:50:53.485Z,59.65
2024-04-21T01:51:55.339Z,60.57
2024-04-21T01:52:56.861Z,61.18
2024-04-21T01:53:58.229Z,63.16
2024-04-21T01:54:59.691Z,67.34
2024-04-21T01:56:01.083Z,68.26
2024-04-21T01:57:02.629Z,66.47
2024-04-21T01:58:04.238Z,63.68
2024-04-21T01:59:05.728Z,61.47
2024-04-21T02:00:08.033Z,58.76
2024-04-21T02:01:09.661Z,55.16
2024-04-21T02:02:11.418Z,53.74
2024-04-21T02:03:12.883Z,53.85
2024-04-21T02:04:14.450Z,54.17
2024-04-21T02:05:16.210Z,54.76
2024-04-21T02:06:17.641Z,55.65
2024-04-21T02:07:19.172Z,56.52
2024-04-21T02:08:20.828Z,57.43
2024-04-21T02:09:22.253Z,58.56
2024-04-21T02:10:23.763Z,59.37
2024-04-21T02:11:25.175Z,59.95
2024-04-21T02:12:26.656Z,60.56
2024-04-21T02:13:28.040Z,61.56
2024-04-21T02:14:29.574Z,63.02
2024-04-21T02:15:31.026Z,67.14
2024-04-21T02:16:32.414Z,67.83
2024-04-21T02:17:33.866Z,65.90
2024-04-21T02:18:35.432Z,63.32
2024-04-21T02:19:36.787Z,61.18
2024-04-21T02:20:38.320Z,57.90
2024-04-21T02:21:39.679Z,55.30
2024-04-21T02:22:41.208Z,54.27
2024-04-21T02:23:42.545Z,54.52
2024-04-21T02:24:44.555Z,54.81
2024-04-21T02:25:46.073Z,55.68
2024-04-21T02:26:47.695Z,56.54
2024-04-21T02:27:49.158Z,57.27
2024-04-21T02:28:50.675Z,58.39
2024-04-21T02:29:52.087Z,59.50
2024-04-21T02:30:54.444Z,60.66
2024-04-21T02:31:55.783Z,61.04
2024-04-21T02:32:57.619Z,62.74
2024-04-21T02:33:59.352Z,66.90
2024-04-21T02:35:01.149Z,68.08
2024-04-21T02:36:02.587Z,65.82
2024-04-21T02:37:04.280Z,63.60
2024-04-21T02:38:05.782Z,61.41
2024-04-21T02:39:07.896Z,58.15
2024-04-21T02:40:09.996Z,54.99
2024-04-21T02:41:11.542Z,53.57
2024-04-21T02:42:12.977Z,53.39
2024-04-21T02:43:14.492Z,53.85
2024-04-21T02:44:16.002Z,54.69
2024-04-21T02:45:17.507Z,55.79
2024-04-21T02:46:22.071Z,56.94
2024-04-21T02:47:23.446Z,57.80
2024-04-21T02:48:24.899Z,58.77
2024-04-21T02:49:26.294Z,59.62
2024-04-21T02:50:28.012Z,60.35
2024-04-21T02:51:29.652Z,60.91
2024-04-21T02:52:31.173Z,61.48
2024-04-21T02:53:32.551Z,62.89
2024-04-21T02:54:34.079Z,66.89
2024-04-21T02:55:42.674Z,67.85
2024-04-21T02:56:44.116Z,66.63
2024-04-21T02:57:45.514Z,63.23
2024-04-21T02:58:46.924Z,60.22
2024-04-21T02:59:48.295Z,57.35
2024-04-21T03:00:49.884Z,54.22
2024-04-21T03:01:51.502Z,53.17
2024-04-21T03:02:53.314Z,53.58
2024-04-21T03:03:55.076Z,54.13
2024-04-21T03:04:56.755Z,54.79
2024-04-21T03:05:59.424Z,55.82
2024-04-21T03:07:00.901Z,56.58
2024-04-21T03:08:03.070Z,57.62
2024-04-21T03:09:04.496Z,58.58
2024-04-21T03:10:06.550Z,59.27
2024-04-21T03:11:08.026Z,60.25
2024-04-21T03:12:10.351Z,61.16
2024-04-21T03:13:11.708Z,61.88
2024-04-21T03:14:13.100Z,63.35
2024-04-21T03:15:14.507Z,67.36
2024-04-21T03:16:16.148Z,68.43
2024-04-21T03:17:22.204Z,66.82
2024-04-21T03:18:23.796Z,64.80
2024-04-21T03:19:25.279Z,62.52
2024-04-21T03:20:26.620Z,58.80
2024-04-21T03:21:28.097Z,56.01
2024-04-21T03:22:29.543Z,54.23
2024-04-21T03:23:30.991Z,54.24
2024-04-21T03:24:32.548Z,54.90
2024-04-21T03:25:34.408Z,55.38
2024-04-21T03:26:36.057Z,56.15
2024-04-21T03:27:37.492Z,57.58
2024-04-21T03:28:38.932Z,58.67
2024-04-21T03:29:40.380Z,59.47
2024-04-21T03:30:42.152Z,60.24
2024-04-21T03:31:44.903Z,61.74
2024-04-21T03:32:46.434Z,63.49
2024-04-21T03:33:48.182Z,66.84
2024-04-21T03:34:54.104Z,67.77
2024-04-21T03:36:02.019Z,65.69
2024-04-21T03:37:03.960Z,63.78
2024-04-21T03:38:05.497Z,61.65
2024-04-21T03:39:06.960Z,57.60
2024-04-21T03:40:09.375Z,54.97
2024-04-21T03:41:10.881Z,53.77
2024-04-21T03:42:12.308Z,54.01
2024-04-21T03:43:13.866Z,54.63
2024-04-21T03:44:15.239Z,55.38
2024-04-21T03:45:16.803Z,56.29
2024-04-21T03:46:19.916Z,57.33
2024-04-21T03:47:23.199Z,58.31
2024-04-21T03:48:25.227Z,59.39
2024-04-21T03:49:26.677Z,60.10
2024-04-21T03:50:28.131Z,60.78
2024-04-21T03:51:29.650Z,61.60
2024-04-21T03:52:31.122Z,63.86
2024-04-21T03:53:32.970Z,67.02
2024-04-21T03:54:34.479Z,68.22
2024-04-21T03:55:35.949Z,66.22
2024-04-21T03:56:37.367Z,63.91
2024-04-21T03:57:38.906Z,61.74
2024-04-21T03:58:40.463Z,59.45
2024-04-21T03:59:41.933Z,55.79
2024-04-21T04:00:45.018Z,54.31
2024-04-21T04:01:46.774Z,54.25
2024-04-21T04:02:48.235Z,54.85
2024-04-21T04:03:50.006Z,55.64
2024-04-21T04:04:51.690Z,56.84
2024-04-21T04:05:53.521Z,57.64
2024-04-21T04:06:55.073Z,58.42
2024-04-21T04:07:56.518Z,59.42
2024-04-21T04:08:58.042Z,60.04
2024-04-21T04:09:59.479Z,61.53
2024-04-21T04:11:00.872Z,62.92
2024-04-21T04:12:02.455Z,66.77
2024-04-21T04:13:04.148Z,67.58
2024-04-21T04:14:05.587Z,65.58
2024-04-21T04:15:07.084Z,63.25
2024-04-21T04:16:08.585Z,61.25
2024-04-21T04:17:10.175Z,58.27
2024-04-21T04:18:11.854Z,55.50
2024-04-21T04:19:13.234Z,54.36
2024-04-21T04:20:15.074Z,54.28
2024-04-21T04:21:16.773Z,54.55
2024-04-21T04:22:18.278Z,55.65
2024-04-21T04:23:19.838Z,56.51
2024-04-21T04:24:21.278Z,57.80
2024-04-21T04:25:22.866Z,58.60
2024-04-21T04:26:24.372Z,59.33
2024-04-21T04:27:25.803Z,60.36
2024-04-21T04:28:27.581Z,61.16
2024-04-21T04:29:29.208Z,62.62
2024-04-21T04:30:30.642Z,66.52
2024-04-21T04:31:32.091Z,67.78
2024-04-21T04:32:33.588Z,66.53
2024-04-21T04:33:35.336Z,64.28
2024-04-21T04:34:36.962Z,61.05
2024-04-21T04:35:38.662Z,58.28
2024-04-21T04:36:40.044Z,54.89
2024-04-21T04:37:41.703Z,53.97
2024-04-21T04:38:43.119Z,53.89
2024-04-21T04:39:44.630Z,54.43
2024-04-21T04:40:47.198Z,55.08
2024-04-21T04:41:48.552Z,56.25
2024-04-21T04:42:50.034Z,56.92
2024-04-21T04:43:51.533Z,57.21
2024-04-21T04:44:52.994Z,58.28
2024-04-21T04:45:54.638Z,59.31
2024-04-21T04:46:56.081Z,59.70
2024-04-21T04:47:57.503Z,60.45
2024-04-21T04:48:59.027Z,61.09
2024-04-21T04:50:00.472Z,61.62
2024-04-21T04:51:01.869Z,63.24
2024-04-21T04:52:03.516Z,66.92
2024-04-21T04:53:05.131Z,67.80
2024-04-21T04:54:06.469Z,66.43
2024-04-21T04:55:08.104Z,64.30
2024-04-21T04:56:09.469Z,61.28
2024-04-21T04:57:10.970Z,57.82
2024-04-21T04:58:12.399Z,54.36
2024-04-21T04:59:14.051Z,53.06
2024-04-21T05:00:15.925Z,53.23
2024-04-21T05:01:17.364Z,53.95
2024-04-21T05:02:18.998Z,54.99
2024-04-21T05:03:20.462Z,56.09
2024-04-21T05:04:22.249Z,56.83
2024-04-21T05:05:24.415Z,57.77
2024-04-21T05:06:25.751Z,58.59
2024-04-21T05:07:27.186Z,59.35
2024-04-21T05:08:28.670Z,60.12
2024-04-21T05:09:30.123Z,60.78
2024-04-21T05:10:31.620Z,61.49
2024-04-21T05:11:33.206Z,63.21
2024-04-21T05:12:34.565Z,67.04
2024-04-21T05:13:35.964Z,68.07
2024-04-21T05:14:37.362Z,66.88
2024-04-21T05:15:38.709Z,64.01
2024-04-21T05:16:46.141Z,62.10
2024-04-21T05:17:48.452Z,60.60
2024-04-21T05:18:49.941Z,56.99
2024-04-21T05:19:51.570Z,54.03
2024-04-21T05:20:56.202Z,52.87
2024-04-21T05:21:58.188Z,52.74
2024-04-21T05:22:59.634Z,53.45
2024-04-21T05:24:01.015Z,54.51
2024-04-21T05:25:02.452Z,55.17
2024-04-21T05:26:04.307Z,55.96
2024-04-21T05:27:05.755Z,56.91
2024-04-21T05:28:07.185Z,58.12
2024-04-21T05:29:08.763Z,59.01
2024-04-21T05:30:11.029Z,59.58
2024-04-21T05:31:12.456Z,60.57
2024-04-21T05:32:14.099Z,61.26
2024-04-21T05:33:15.561Z,62.69
2024-04-21T05:34:17.808Z,65.65
2024-04-21T05:35:19.583Z,68.06
2024-04-21T05:36:21.072Z,66.86
2024-04-21T05:37:22.500Z,64.50
2024-04-21T05:38:24.095Z,61.48
2024-04-21T05:39:26.585Z,59.05
2024-04-21T05:40:28.771Z,55.11
2024-04-21T05:41:30.298Z,53.80
2024-04-21T05:42:32.173Z,53.91
2024-04-21T05:43:33.528Z,54.50
2024-04-21T05:44:34.982Z,55.29
2024-04-21T05:45:36.347Z,56.37
2024-04-21T05:46:37.889Z,57.38
2024-04-21T05:47:41.377Z,57.99
2024-04-21T05:48:42.891Z,58.97
2024-04-21T05:49:44.406Z,59.95
2024-04-21T05:50:45.952Z,60.53
2024-04-21T05:51:47.650Z,61.20
2024-04-21T05:52:49.346Z,63.19
2024-04-21T05:53:50.785Z,67.24
2024-04-21T05:54:52.172Z,68.30
2024-04-21T05:55:53.593Z,66.55
2024-04-21T05:56:54.969Z,63.55
2024-04-21T05:57:56.329Z,60.68
2024-04-21T05:58:57.706Z,58.39
2024-04-21T05:59:59.222Z,54.78
2024-04-21T06:01:00.807Z,53.91
2024-04-21T06:02:02.416Z,53.59
2024-04-21T06:03:04.908Z,54.25
2024-04-21T06:04:06.437Z,55.18
2024-04-21T06:05:08.406Z,56.19
2024-04-21T06:06:09.914Z,57.25
2024-04-21T06:07:12.317Z,58.13
2024-04-21T06:08:13.741Z,58.68
2024-04-21T06:09:15.259Z,59.52
2024-04-21T06:10:16.873Z,60.18
2024-04-21T06:11:18.431Z,61.01
2024-04-21T06:12:19.854Z,61.40
2024-04-21T06:13:21.367Z,63.07
2024-04-21T06:14:22.875Z,66.44
2024-04-21T06:15:24.928Z,67.77
2024-04-21T06:16:26.409Z,65.90
2024-04-21T06:17:27.940Z,64.05
2024-04-21T06:18:29.502Z,61.62
2024-04-21T06:19:31.261Z,58.48
2024-04-21T06:20:36.164Z,55.54
2024-04-21T06:21:37.528Z,53.97
2024-04-21T06:22:39.523Z,54.06
2024-04-21T06:23:40.916Z,54.68
2024-04-21T06:24:42.415Z,55.51
2024-04-21T06:25:43.965Z,56.61
2024-04-21T06:26:46.648Z,57.11
2024-04-21T06:27:49.270Z,58.23
2024-04-21T06:28:50.927Z,58.76
2024-04-21T06:29:52.405Z,59.50
2024-04-21T06:30:53.774Z,60.05
2024-04-21T06:31:55.175Z,60.88
2024-04-21T06:32:56.695Z,62.24
2024-04-21T06:33:58.201Z,66.58
2024-04-21T06:34:59.719Z,67.71
2024-04-21T06:36:01.907Z,66.68
2024-04-21T06:37:03.504Z,64.11
2024-04-21T06:38:05.053Z,61.14
2024-04-21T06:39:06.699Z,58.42
2024-04-21T06:40:09.022Z,55.26
2024-04-21T06:41:12.625Z,54.05
2024-04-21T06:42:13.965Z,53.76
2024-04-21T06:43:15.472Z,54.09
2024-04-21T06:44:17.018Z,54.79
2024-04-21T06:45:18.511Z,55.71
2024-04-21T06:46:19.923Z,56.30
2024-04-21T06:47:21.507Z,57.78
2024-04-21T06:48:23.508Z,58.95
2024-04-21T06:49:25.286Z,59.56
2024-04-21T06:50:26.830Z,60.18
2024-04-21T06:51:28.260Z,60.91
2024-04-21T06:52:29.698Z,62.09
2024-04-21T06:53:34.900Z,65.52
2024-04-21T06:54:38.044Z,67.24
2024-04-21T06:55:39.524Z,65.16
2024-04-21T06:56:40.903Z,62.91
2024-04-21T06:57:44.713Z,60.76
2024-04-21T06:58:46.125Z,57.34
2024-04-21T06:59:47.492Z,53.99
2024-04-21T07:00:51.469Z,53.07
2024-04-21T07:01:53.206Z,53.05
2024-04-21T07:02:54.683Z,53.86
2024-04-21T07:03:56.214Z,55.00
2024-04-21T07:04:57.846Z,55.95
2024-04-21T07:05:59.387Z,57.06
2024-04-21T07:07:01.281Z,58.32
2024-04-21T07:08:02.880Z,59.07
2024-04-21T07:09:05.101Z,60.73
2024-04-21T07:10:07.223Z,61.28
2024-04-21T07:11:08.716Z,63.27
2024-04-21T07:12:10.696Z,66.22
2024-04-21T07:13:12.721Z,67.22
2024-04-21T07:14:20.593Z,65.86
2024-04-21T07:15:22.929Z,64.33
2024-04-21T07:16:24.374Z,61.67
2024-04-21T07:17:25.985Z,58.64
2024-04-21T07:18:27.710Z,55.33
2024-04-21T07:19:29.411Z,53.86
2024-04-21T07:20:30.929Z,53.82
2024-04-21T07:21:32.300Z,54.07
2024-04-21T07:22:33.802Z,55.15
2024-04-21T07:23:35.178Z,55.74
2024-04-21T07:24:36.556Z,56.88
2024-04-21T07:25:38.047Z,57.46
2024-04-21T07:26:39.562Z,58.40
2024-04-21T07:27:42.245Z,59.20
2024-04-21T07:28:45.722Z,60.05
2024-04-21T07:29:47.129Z,60.99
2024-04-21T07:30:49.854Z,62.02
2024-04-21T07:31:51.431Z,66.13
2024-04-21T07:32:52.942Z,67.04
2024-04-21T07:33:54.404Z,65.73
2024-04-21T07:34:55.828Z,62.16
2024-04-21T07:35:57.765Z,58.73
2024-04-21T07:36:59.255Z,55.22
2024-04-21T07:38:02.950Z,53.41
2024-04-21T07:39:05.707Z,52.92
2024-04-21T07:40:08.105Z,53.56
2024-04-21T07:41:09.694Z,54.13
2024-04-21T07:42:11.214Z,54.95
2024-04-21T07:43:15.801Z,56.29
2024-04-21T07:44:17.365Z,56.73
2024-04-21T07:45:18.819Z,57.94
2024-04-21T07:46:20.591Z,58.39
2024-04-21T07:47:22.079Z,59.57
2024-04-21T07:48:23.722Z,60.19
2024-04-21T07:49:25.242Z,60.91
2024-04-21T07:50:26.765Z,61.39
2024-04-21T07:51:28.791Z,61.60
2024-04-21T07:52:30.190Z,63.13
2024-04-21T07:53:31.670Z,66.91
2024-04-21T07:54:33.309Z,67.24
2024-04-21T07:55:34.762Z,65.54
2024-04-21T07:56:36.321Z,62.83
2024-04-21T07:57:37.837Z,60.41
2024-04-21T07:58:39.591Z,57.85
2024-04-21T07:59:41.010Z,54.66
2024-04-21T08:00:42.593Z,53.09
2024-04-21T08:01:44.175Z,52.62
2024-04-21T08:02:48.560Z,53.32
2024-04-21T08:03:50.180Z,54.14
2024-04-21T08:04:51.666Z,55.16
2024-04-21T08:05:53.040Z,56.02
2024-04-21T08:06:54.482Z,57.27
2024-04-21T08:07:56.032Z,57.71
2024-04-21T08:09:04.369Z,58.30
2024-04-21T08:10:13.184Z,58.40
2024-04-21T08:11:14.965Z,59.80
2024-04-21T08:12:16.557Z,61.06
2024-04-21T08:13:18.232Z,62.52
2024-04-21T08:14:19.761Z,65.80
2024-04-21T08:15:21.120Z,66.28
2024-04-21T08:16:22.660Z,65.49
2024-04-21T08:17:24.599Z,62.91
2024-04-21T08:18:26.148Z,60.40
2024-04-21T08:19:27.861Z,57.19
2024-04-21T08:20:29.350Z,54.80
2024-04-21T08:21:30.961Z,52.88
2024-04-21T08:22:32.465Z,52.57
2024-04-21T08:23:34.028Z,53.37
2024-04-21T08:24:37.214Z,54.28
2024-04-21T08:25:38.662Z,55.07
2024-04-21T08:26:40.199Z,56.12
2024-04-21T08:27:41.666Z,56.51
2024-04-21T08:28:43.222Z,57.44
2024-04-21T08:29:44.726Z,58.00
2024-04-21T08:30:46.171Z,58.59
2024-04-21T08:31:48.802Z,59.26
2024-04-21T08:32:50.310Z,59.91
2024-04-21T08:33:51.866Z,60.59
2024-04-21T08:34:53.564Z,61.26
2024-04-21T08:35:56.407Z,62.29
2024-04-21T08:36:57.844Z,65.05
2024-04-21T08:37:59.251Z,66.75
2024-04-21T08:39:00.763Z,65.11
2024-04-21T08:40:04.077Z,62.61
2024-04-21T08:41:10.606Z,57.91
2024-04-21T08:42:12.998Z,53.59
2024-04-21T08:43:22.391Z,51.96
2024-04-21T08:44:23.964Z,52.15
2024-04-21T08:45:28.099Z,52.99
2024-04-21T08:46:30.337Z,53.38
2024-04-21T08:47:34.773Z,54.14
2024-04-21T08:48:36.529Z,55.19
2024-04-21T08:49:38.035Z,56.07
2024-04-21T08:50:41.444Z,57.68
2024-04-21T08:51:44.801Z,57.72
2024-04-21T08:52:46.391Z,58.46
2024-04-21T08:53:47.815Z,59.23
2024-04-21T08:54:49.843Z,60.06
2024-04-21T08:55:52.172Z,60.69
2024-04-21T08:56:55.352Z,60.67
2024-04-21T08:57:56.757Z,61.26
2024-04-21T08:58:59.439Z,61.49
2024-04-21T09:00:04.097Z,63.31
2024-04-21T09:01:05.630Z,67.38
2024-04-21T09:02:12.262Z,66.98
2024-04-21T09:03:17.427Z,66.01
2024-04-21T09:04:18.890Z,62.28
2024-04-21T09:05:21.146Z,58.63
2024-04-21T09:06:27.158Z,54.55
2024-04-21T09:07:32.110Z,53.06
2024-04-21T09:08:33.532Z,52.73
2024-04-21T09:09:34.874Z,53.35
2024-04-21T09:10:37.317Z,54.24
2024-04-21T09:11:40.335Z,54.87
2024-04-21T09:12:45.025Z,56.45
2024-04-21T09:13:46.498Z,62.52
2024-04-21T09:14:48.756Z,66.78
2024-04-21T09:15:50.311Z,64.78
2024-04-21T09:16:51.775Z,59.10
2024-04-21T09:17:53.231Z,53.66
2024-04-21T09:18:55.029Z,52.82
2024-04-21T09:19:56.644Z,52.11
2024-04-21T09:20:58.296Z,51.69
2024-04-21T09:21:59.801Z,52.00
2024-04-21T09:23:01.600Z,51.96
2024-04-21T09:24:03.010Z,52.50
2024-04-21T09:25:05.459Z,53.10
2024-04-21T09:26:08.601Z,53.64
2024-04-21T09:27:09.993Z,53.99
2024-04-21T09:28:11.511Z,54.92
2024-04-21T09:29:12.999Z,55.72
2024-04-21T09:30:14.439Z,56.02
2024-04-21T09:31:16.117Z,56.32
2024-04-21T09:32:18.382Z,56.65
2024-04-21T09:33:21.607Z,56.55
2024-04-21T09:34:23.317Z,56.93
2024-04-21T09:35:24.862Z,57.80
2024-04-21T09:36:26.770Z,57.59
2024-04-21T09:37:28.310Z,57.30
2024-04-21T09:38:30.329Z,57.81
2024-04-21T09:39:32.609Z,58.68
2024-04-21T09:40:37.880Z,59.27
2024-04-21T09:41:41.606Z,59.29
2024-04-21T09:42:45.153Z,60.23
2024-04-21T09:43:48.212Z,60.44
2024-04-21T09:44:50.867Z,61.36
2024-04-21T09:45:54.636Z,61.19
2024-04-21T09:46:57.656Z,60.81
2024-04-21T09:48:02.224Z,61.24
2024-04-21T09:49:04.451Z,61.17
2024-04-21T09:50:11.182Z,61.28
2024-04-21T09:51:13.525Z,61.14
2024-04-21T09:52:17.676Z,60.92
2024-04-21T09:53:20.133Z,61.22
2024-04-21T09:54:26.579Z,61.19
2024-04-21T09:55:34.311Z,61.50
2024-04-21T09:56:45.397Z,61.47
2024-04-21T09:58:02.572Z,62.49
2024-04-21T09:59:07.952Z,65.71
2024-04-21T10:00:11.191Z,67.33
2024-04-21T10:01:24.243Z,65.01
2024-04-21T10:02:26.261Z,63.51
2024-04-21T10:03:28.560Z,57.85
2024-04-21T10:04:31.612Z,54.05
2024-04-21T10:05:33.730Z,52.86
2024-04-21T10:06:35.899Z,52.03
2024-04-21T10:07:39.484Z,52.38
2024-04-21T10:08:41.555Z,52.80
2024-04-21T10:09:43.380Z,53.65
2024-04-21T10:10:50.577Z,54.00
2024-04-21T10:11:52.098Z,54.09
2024-04-21T10:12:56.217Z,55.61
2024-04-21T10:14:02.179Z,56.02
2024-04-21T10:15:06.572Z,56.47
2024-04-21T10:16:08.138Z,56.99
2024-04-21T10:17:09.850Z,57.65
2024-04-21T10:18:19.774Z,57.88
2024-04-21T10:19:26.933Z,57.99
2024-04-21T10:20:31.783Z,58.40
2024-04-21T10:21:33.434Z,59.10
2024-04-21T10:22:35.136Z,59.65
2024-04-21T10:23:36.551Z,59.89
2024-04-21T10:24:38.276Z,60.32
2024-04-21T10:25:46.023Z,60.56
2024-04-21T10:26:47.493Z,60.70
2024-04-21T10:27:49.035Z,61.24
2024-04-21T10:28:50.506Z,61.56
2024-04-21T10:29:52.019Z,62.56
2024-04-21T10:31:04.384Z,66.23
2024-04-21T10:32:11.428Z,67.49
2024-04-21T10:33:15.058Z,64.89
2024-04-21T10:34:16.897Z,61.63
2024-04-21T10:35:22.375Z,58.24
2024-04-21T10:36:23.815Z,54.52
2024-04-21T10:37:27.032Z,53.09
2024-04-21T10:38:28.635Z,52.61
2024-04-21T10:39:30.024Z,52.70
2024-04-21T10:40:32.145Z,53.36
2024-04-21T10:41:46.597Z,53.99
2024-04-21T10:42:55.175Z,54.37
2024-04-21T10:43:56.649Z,55.36
2024-04-21T10:44:58.491Z,56.08
2024-04-21T10:46:00.318Z,56.70
2024-04-21T10:47:02.121Z,57.28
2024-04-21T10:48:05.102Z,57.42
2024-04-21T10:49:06.845Z,57.88
2024-04-21T10:50:08.346Z,58.32
2024-04-21T10:51:10.636Z,58.88
2024-04-21T10:52:13.122Z,59.17
2024-04-21T10:53:15.012Z,59.44
2024-04-21T10:54:18.293Z,60.23
2024-04-21T10:55:20.550Z,60.29
2024-04-21T10:56:22.518Z,60.70
2024-04-21T10:57:24.159Z,61.61
2024-04-21T10:58:25.602Z,62.42
2024-04-21T10:59:27.254Z,66.26
2024-04-21T11:00:29.858Z,67.50
2024-04-21T11:01:31.238Z,65.63
2024-04-21T11:02:32.757Z,63.32
2024-04-21T11:03:34.731Z,60.94
2024-04-21T11:04:37.329Z,57.75
2024-04-21T11:06:01.141Z,54.09
2024-04-21T11:07:02.945Z,52.64
2024-04-21T11:08:04.750Z,52.42
2024-04-21T11:09:11.262Z,53.39
2024-04-21T11:10:12.745Z,54.01
2024-04-21T11:11:15.190Z,55.67
2024-04-21T11:12:18.185Z,56.20
2024-04-21T11:13:19.915Z,56.70
2024-04-21T11:14:21.748Z,57.72
2024-04-21T11:15:23.121Z,58.16
2024-04-21T11:16:31.439Z,58.69
2024-04-21T11:17:34.025Z,59.50
2024-04-21T11:18:35.581Z,59.97
2024-04-21T11:19:37.290Z,60.43
2024-04-21T11:20:38.996Z,60.88
2024-04-21T11:21:40.715Z,61.51
2024-04-21T11:22:43.009Z,62.57
2024-04-21T11:23:45.436Z,66.65
2024-04-21T11:24:47.525Z,67.92
2024-04-21T11:25:53.825Z,66.10
2024-04-21T11:26:59.607Z,63.96
2024-04-21T11:28:01.157Z,60.80
2024-04-21T11:29:02.997Z,57.79
2024-04-21T11:30:05.818Z,53.76
2024-04-21T11:31:07.554Z,52.71
2024-04-21T11:32:14.652Z,52.95
2024-04-21T11:33:16.537Z,53.49
2024-04-21T11:34:18.871Z,54.47
2024-04-21T11:35:20.723Z,55.41
2024-04-21T11:36:23.104Z,56.32
2024-04-21T11:37:24.686Z,57.37
2024-04-21T11:38:26.291Z,58.15
2024-04-21T11:39:28.613Z,58.96
2024-04-21T11:40:30.254Z,59.49
2024-04-21T11:41:31.738Z,60.16
2024-04-21T11:42:33.693Z,60.60
2024-04-21T11:43:36.091Z,61.46
2024-04-21T11:44:37.611Z,62.98
2024-04-21T11:45:39.660Z,66.44
2024-04-21T11:46:41.207Z,66.95
2024-04-21T11:47:43.280Z,64.35
2024-04-21T11:48:52.467Z,61.54
2024-04-21T11:49:54.841Z,57.47
2024-04-21T11:50:56.299Z,54.06
2024-04-21T11:51:57.696Z,52.54
2024-04-21T11:52:59.196Z,51.84
2024-04-21T11:54:00.718Z,52.47
2024-04-21T11:55:02.097Z,53.47
2024-04-21T11:56:03.999Z,53.74
2024-04-21T11:57:06.211Z,54.83
2024-04-21T11:58:07.833Z,55.41
2024-04-21T11:59:09.263Z,55.97
2024-04-21T12:00:11.286Z,56.65
2024-04-21T12:01:12.865Z,58.16
2024-04-21T12:02:14.418Z,57.91
2024-04-21T12:03:16.450Z,58.66
2024-04-21T12:04:18.156Z,59.16
2024-04-21T12:05:19.679Z,59.39
2024-04-21T12:06:21.095Z,59.49
2024-04-21T12:07:24.052Z,60.08
2024-04-21T12:08:25.922Z,60.32
2024-04-21T12:09:27.435Z,60.67
2024-04-21T12:10:32.568Z,61.08
2024-04-21T12:11:34.129Z,61.26
2024-04-21T12:12:35.583Z,61.97
2024-04-21T12:13:38.326Z,63.11
2024-04-21T12:14:40.174Z,66.86
2024-04-21T12:15:41.555Z,67.63
2024-04-21T12:16:43.054Z,65.59
2024-04-21T12:17:44.653Z,62.93
2024-04-21T12:18:46.139Z,59.81
2024-04-21T12:19:47.582Z,55.55
2024-04-21T12:20:49.186Z,53.56
2024-04-21T12:21:50.575Z,53.55
2024-04-21T12:22:52.094Z,53.95
2024-04-21T12:23:53.466Z,54.73
2024-04-21T12:24:55.027Z,55.72
2024-04-21T12:25:56.527Z,56.03
2024-04-21T12:26:57.891Z,56.96
2024-04-21T12:27:59.468Z,57.12
2024-04-21T12:29:00.875Z,58.07
2024-04-21T12:30:02.393Z,58.45
2024-04-21T12:31:04.039Z,59.06
2024-04-21T12:32:06.067Z,59.22
2024-04-21T12:33:07.673Z,60.22
2024-04-21T12:34:09.298Z,60.61
2024-04-21T12:35:10.753Z,61.02
2024-04-21T12:36:12.163Z,61.71
2024-04-21T12:37:13.528Z,62.83
2024-04-21T12:38:14.967Z,66.49
2024-04-21T12:39:16.723Z,67.24
2024-04-21T12:40:18.299Z,64.95
2024-04-21T12:41:19.997Z,62.92
2024-04-21T12:42:21.365Z,60.57
2024-04-21T12:43:22.773Z,57.31
2024-04-21T12:44:24.223Z,52.78
2024-04-21T12:45:25.658Z,51.81
2024-04-21T12:46:27.163Z,51.97
2024-04-21T12:47:28.849Z,52.92
2024-04-21T12:48:30.387Z,53.43
2024-04-21T12:49:31.766Z,54.31
2024-04-21T12:50:33.562Z,54.94
2024-04-21T12:51:35.318Z,55.80
2024-04-21T12:52:37.212Z,56.14
2024-04-21T12:53:39.624Z,56.83
2024-04-21T12:54:40.998Z,57.63
2024-04-21T12:55:42.792Z,58.19
2024-04-21T12:56:44.356Z,58.44
2024-04-21T12:57:45.736Z,58.95
2024-04-21T12:58:47.171Z,59.17
2024-04-21T12:59:48.551Z,59.67
2024-04-21T13:00:51.898Z,60.22
2024-04-21T13:01:53.782Z,60.48
2024-04-21T13:02:55.299Z,60.79
2024-04-21T13:03:56.846Z,61.28
2024-04-21T13:04:58.742Z,61.93
2024-04-21T13:06:00.423Z,62.56
2024-04-21T13:07:01.963Z,66.12
2024-04-21T13:08:03.689Z,67.27
2024-04-21T13:09:05.101Z,65.61
2024-04-21T13:10:07.827Z,63.12
2024-04-21T13:11:09.746Z,60.35
2024-04-21T13:12:11.164Z,55.85
2024-04-21T13:13:12.660Z,53.56
2024-04-21T13:14:14.207Z,52.94
2024-04-21T13:15:15.715Z,53.41
2024-04-21T13:16:17.189Z,53.95
2024-04-21T13:17:21.397Z,54.94
2024-04-21T13:18:23.698Z,55.62
2024-04-21T13:19:25.506Z,56.53
2024-04-21T13:20:27.015Z,56.97